sensor_id;sensor_type;location;lat;lon;timestamp;temperature;humidity
11824;DHT22;5969;50.780;7.726;2023-04-03T02:16:54;3.00;99.90
11824;DHT22;5969;50.780;7.726;2023-04-03T02:19:59;2.80;99.90
11824;DHT22;5969;50.780;7.726;2023-04-03T02:23:08;2.70;99.90
11824;DHT22;5969;50.780;7.726;2023-04-03T02:26:45;2.50;99.90
11824;DHT22;5969;50.780;7.726;2023-04-03T02:35:05;2.20;99.90
11824;DHT22;5969;50.780;7.726;2023-04-03T02:36:17;2.10;99.90
11824;DHT22;5969;50.780;7.726;2023-04-03T02:39:09;2.10;99.90
11824;DHT22;5969;50.780;7.726;2023-04-03T02:41:48;2.00;99.90
11824;DHT22;5969;50.780;7.726;2023-04-03T02:46:17;2.00;99.90
11824;DHT22;5969;50.780;7.726;2023-04-03T02:47:36;1.90;99.90
11824;DHT22;5969;50.780;7.726;2023-04-03T02:50:29;1.90;99.90
11824;DHT22;5969;50.780;7.726;2023-04-03T02:53:14;1.80;99.90
11824;DHT22;5969;50.780;7.726;2023-04-03T02:56:08;1.70;99.90
11824;DHT22;5969;50.780;7.726;2023-04-03T02:59:02;1.70;99.90
11824;DHT22;5969;50.780;7.726;2023-04-03T03:01:42;1.60;99.90
11824;DHT22;5969;50.780;7.726;2023-04-03T03:04:25;1.60;99.90
11824;DHT22;5969;50.780;7.726;2023-04-03T03:07:24;1.60;99.90
11824;DHT22;5969;50.780;7.726;2023-04-03T03:10:25;1.60;99.90
11824;DHT22;5969;50.780;7.726;2023-04-03T03:13:31;1.60;99.90
11824;DHT22;5969;50.780;7.726;2023-04-03T03:16:15;1.70;99.90
11824;DHT22;5969;50.780;7.726;2023-04-03T03:25:44;1.70;99.90
11824;DHT22;5969;50.780;7.726;2023-04-03T03:28:46;1.70;99.90
11824;DHT22;5969;50.780;7.726;2023-04-03T03:34:38;1.50;99.90
11824;DHT22;5969;50.780;7.726;2023-04-03T03:37:37;1.50;99.90
11824;DHT22;5969;50.780;7.726;2023-04-03T03:40:29;1.40;99.90
11824;DHT22;5969;50.780;7.726;2023-04-03T03:43:46;1.40;99.90
11824;DHT22;5969;50.780;7.726;2023-04-03T03:46:33;1.40;99.90
11824;DHT22;5969;50.780;7.726;2023-04-03T03:49:39;1.30;99.90
11824;DHT22;5969;50.780;7.726;2023-04-03T03:53:18;1.30;99.90
11824;DHT22;5969;50.780;7.726;2023-04-03T03:55:42;1.40;99.90
11824;DHT22;5969;50.780;7.726;2023-04-03T03:58:43;1.30;99.90
11824;DHT22;5969;50.780;7.726;2023-04-03T04:01:28;1.20;99.90
11824;DHT22;5969;50.780;7.726;2023-04-03T04:08:26;1.00;99.90
11824;DHT22;5969;50.780;7.726;2023-04-03T04:11:02;1.10;99.90
11824;DHT22;5969;50.780;7.726;2023-04-03T04:13:52;1.00;99.90
11824;DHT22;5969;50.780;7.726;2023-04-03T04:16:43;0.90;99.90
11824;DHT22;5969;50.780;7.726;2023-04-03T04:21:00;1.10;99.90
11824;DHT22;5969;50.780;7.726;2023-04-03T04:29:55;1.10;99.90
11824;DHT22;5969;50.780;7.726;2023-04-03T04:32:54;1.10;99.90
11824;DHT22;5969;50.780;7.726;2023-04-03T04:35:59;1.10;99.90
11824;DHT22;5969;50.780;7.726;2023-04-03T04:39:14;1.10;99.90
11824;DHT22;5969;50.780;7.726;2023-04-03T04:48:15;1.00;99.90
11824;DHT22;5969;50.780;7.726;2023-04-03T04:50:52;0.80;99.90
11824;DHT22;5969;50.780;7.726;2023-04-03T04:53:37;0.90;99.90
11824;DHT22;5969;50.780;7.726;2023-04-03T04:56:20;0.90;99.90
11824;DHT22;5969;50.780;7.726;2023-04-03T04:59:19;0.90;99.90
11824;DHT22;5969;50.780;7.726;2023-04-03T05:13:03;0.70;99.90
11824;DHT22;5969;50.780;7.726;2023-04-03T05:15:53;0.60;99.90
11824;DHT22;5969;50.780;7.726;2023-04-03T05:34:57;0.90;99.90
11824;DHT22;5969;50.780;7.726;2023-04-03T05:40:31;0.90;99.90
11824;DHT22;5969;50.780;7.726;2023-04-03T13:16:41;21.70;71.60
11824;DHT22;5969;50.780;7.726;2023-04-03T13:19:16;20.30;70.90
11824;DHT22;5969;50.780;7.726;2023-04-03T13:21:44;18.60;69.40
11824;DHT22;5969;50.780;7.726;2023-04-03T13:24:12;17.60;73.30
11824;DHT22;5969;50.780;7.726;2023-04-03T13:26:40;17.10;72.10
11824;DHT22;5969;50.780;7.726;2023-04-03T13:29:21;18.30;77.20
11824;DHT22;5969;50.780;7.726;2023-04-03T13:31:53;22.30;71.90
11824;DHT22;5969;50.780;7.726;2023-04-03T13:34:20;24.70;68.20
11824;DHT22;5969;50.780;7.726;2023-04-03T13:36:56;26.70;63.00
11824;DHT22;5969;50.780;7.726;2023-04-03T13:39:25;26.60;60.90
11824;DHT22;5969;50.780;7.726;2023-04-03T13:41:54;27.00;61.40
11824;DHT22;5969;50.780;7.726;2023-04-03T13:44:33;27.30;59.20
11824;DHT22;5969;50.780;7.726;2023-04-03T13:47:16;29.20;53.70
11824;DHT22;5969;50.780;7.726;2023-04-03T13:49:45;29.00;55.60
11824;DHT22;5969;50.780;7.726;2023-04-03T13:52:22;29.50;53.50
11824;DHT22;5969;50.780;7.726;2023-04-03T13:54:53;30.60;49.20
11824;DHT22;5969;50.780;7.726;2023-04-03T13:57:21;31.30;48.00
11824;DHT22;5969;50.780;7.726;2023-04-03T13:59:48;30.90;48.60
11824;DHT22;5969;50.780;7.726;2023-04-03T14:02:20;30.50;47.00
11824;DHT22;5969;50.780;7.726;2023-04-03T14:04:52;32.20;47.10
11824;DHT22;5969;50.780;7.726;2023-04-03T14:07:21;32.30;47.20
11824;DHT22;5969;50.780;7.726;2023-04-03T14:09:49;32.60;45.00
11824;DHT22;5969;50.780;7.726;2023-04-03T14:12:18;33.00;42.10
11824;DHT22;5969;50.780;7.726;2023-04-03T14:14:48;33.00;41.40
11824;DHT22;5969;50.780;7.726;2023-04-03T14:17:19;32.40;43.30
11824;DHT22;5969;50.780;7.726;2023-04-03T14:19:48;32.40;41.20
11824;DHT22;5969;50.780;7.726;2023-04-03T14:22:18;32.20;43.30
11824;DHT22;5969;50.780;7.726;2023-04-03T14:24:47;32.30;42.50
11824;DHT22;5969;50.780;7.726;2023-04-03T14:27:18;33.30;41.90
11824;DHT22;5969;50.780;7.726;2023-04-03T14:29:46;32.60;41.20
11824;DHT22;5969;50.780;7.726;2023-04-03T14:32:16;33.50;39.30
11824;DHT22;5969;50.780;7.726;2023-04-03T14:34:45;33.50;39.90
11824;DHT22;5969;50.780;7.726;2023-04-03T14:37:15;33.00;38.20
11824;DHT22;5969;50.780;7.726;2023-04-03T14:39:43;32.30;40.80
11824;DHT22;5969;50.780;7.726;2023-04-03T14:42:15;32.00;38.60
11824;DHT22;5969;50.780;7.726;2023-04-03T14:44:42;31.40;39.50
11824;DHT22;5969;50.780;7.726;2023-04-03T14:47:11;31.30;40.30
11824;DHT22;5969;50.780;7.726;2023-04-03T14:49:38;31.60;41.40
11824;DHT22;5969;50.780;7.726;2023-04-03T14:52:09;31.90;38.90
11824;DHT22;5969;50.780;7.726;2023-04-03T14:54:56;32.30;39.40
11824;DHT22;5969;50.780;7.726;2023-04-03T14:57:25;33.40;38.70
11824;DHT22;5969;50.780;7.726;2023-04-03T14:59:53;31.80;40.20
11824;DHT22;5969;50.780;7.726;2023-04-03T15:02:31;31.10;41.20
11824;DHT22;5969;50.780;7.726;2023-04-03T15:05:01;31.20;39.50
11824;DHT22;5969;50.780;7.726;2023-04-03T15:07:32;31.30;40.20
11824;DHT22;5969;50.780;7.726;2023-04-03T15:10:02;31.40;41.30
11824;DHT22;5969;50.780;7.726;2023-04-03T15:12:29;31.90;40.10
11824;DHT22;5969;50.780;7.726;2023-04-03T15:14:56;30.50;40.30
11824;DHT22;5969;50.780;7.726;2023-04-03T15:17:22;30.90;40.10
11824;DHT22;5969;50.780;7.726;2023-04-03T15:19:49;31.80;39.00
11824;DHT22;5969;50.780;7.726;2023-04-03T15:22:18;32.90;36.80
11824;DHT22;5969;50.780;7.726;2023-04-03T15:24:47;33.00;35.30
11824;DHT22;5969;50.780;7.726;2023-04-03T15:27:14;33.00;36.10
11824;DHT22;5969;50.780;7.726;2023-04-03T15:29:43;33.40;37.60
11824;DHT22;5969;50.780;7.726;2023-04-03T15:32:11;33.80;38.70
11824;DHT22;5969;50.780;7.726;2023-04-03T15:34:39;34.70;36.20
11824;DHT22;5969;50.780;7.726;2023-04-03T15:37:06;33.60;34.50
11824;DHT22;5969;50.780;7.726;2023-04-03T15:39:34;33.20;36.30
11824;DHT22;5969;50.780;7.726;2023-04-03T15:42:02;34.40;34.80
11824;DHT22;5969;50.780;7.726;2023-04-03T15:44:32;34.00;34.20
11824;DHT22;5969;50.780;7.726;2023-04-03T15:47:02;32.60;37.20
11824;DHT22;5969;50.780;7.726;2023-04-03T15:49:30;32.60;36.20
11824;DHT22;5969;50.780;7.726;2023-04-03T15:51:57;30.80;38.80
11824;DHT22;5969;50.780;7.726;2023-04-03T15:54:24;30.40;38.10
11824;DHT22;5969;50.780;7.726;2023-04-03T15:56:52;29.80;38.00
11824;DHT22;5969;50.780;7.726;2023-04-03T15:59:20;28.90;38.20
11824;DHT22;5969;50.780;7.726;2023-04-03T16:01:47;28.30;39.80
11824;DHT22;5969;50.780;7.726;2023-04-03T16:04:15;27.50;42.40
11824;DHT22;5969;50.780;7.726;2023-04-03T16:06:42;27.60;41.70
11824;DHT22;5969;50.780;7.726;2023-04-03T16:09:09;27.40;40.10
11824;DHT22;5969;50.780;7.726;2023-04-03T16:11:36;27.70;41.90
11824;DHT22;5969;50.780;7.726;2023-04-03T16:14:04;27.70;41.40
11824;DHT22;5969;50.780;7.726;2023-04-03T16:16:33;27.80;39.30
11824;DHT22;5969;50.780;7.726;2023-04-03T16:19:01;28.00;40.50
11824;DHT22;5969;50.780;7.726;2023-04-03T16:21:28;27.90;39.60
11824;DHT22;5969;50.780;7.726;2023-04-03T16:23:56;27.60;41.00
11824;DHT22;5969;50.780;7.726;2023-04-03T16:26:24;27.70;40.00
11824;DHT22;5969;50.780;7.726;2023-04-03T16:28:51;26.20;41.90
11824;DHT22;5969;50.780;7.726;2023-04-03T16:31:17;26.00;40.70
11824;DHT22;5969;50.780;7.726;2023-04-03T16:33:47;25.50;40.30
11824;DHT22;5969;50.780;7.726;2023-04-03T16:36:16;24.50;42.80
11824;DHT22;5969;50.780;7.726;2023-04-03T16:38:44;23.50;45.10
11824;DHT22;5969;50.780;7.726;2023-04-03T16:41:10;23.80;44.90
11824;DHT22;5969;50.780;7.726;2023-04-03T16:43:37;23.20;44.90
11824;DHT22;5969;50.780;7.726;2023-04-03T16:46:04;22.70;47.00
11824;DHT22;5969;50.780;7.726;2023-04-03T16:48:31;22.60;44.80
11824;DHT22;5969;50.780;7.726;2023-04-03T16:51:00;22.60;45.40
11824;DHT22;5969;50.780;7.726;2023-04-03T16:53:27;22.70;45.00
11824;DHT22;5969;50.780;7.726;2023-04-03T16:55:56;22.10;44.90
11824;DHT22;5969;50.780;7.726;2023-04-03T16:58:23;21.80;45.60
11824;DHT22;5969;50.780;7.726;2023-04-03T17:00:57;21.60;45.30
11824;DHT22;5969;50.780;7.726;2023-04-03T17:03:25;21.30;45.00
11824;DHT22;5969;50.780;7.726;2023-04-03T17:05:53;20.60;45.00
11824;DHT22;5969;50.780;7.726;2023-04-03T17:08:21;19.90;47.40
11824;DHT22;5969;50.780;7.726;2023-04-03T17:10:49;19.70;46.90
11824;DHT22;5969;50.780;7.726;2023-04-03T17:13:19;19.60;48.30
11824;DHT22;5969;50.780;7.726;2023-04-03T17:15:46;19.00;48.00
11824;DHT22;5969;50.780;7.726;2023-04-03T17:18:13;18.70;49.00
11824;DHT22;5969;50.780;7.726;2023-04-03T17:20:40;17.50;49.80
11824;DHT22;5969;50.780;7.726;2023-04-03T17:23:07;16.50;50.70
11824;DHT22;5969;50.780;7.726;2023-04-03T17:25:36;15.10;52.70
11824;DHT22;5969;50.780;7.726;2023-04-03T17:28:03;14.30;53.70
11824;DHT22;5969;50.780;7.726;2023-04-03T17:30:29;13.80;55.10
11824;DHT22;5969;50.780;7.726;2023-04-03T17:33:00;13.20;56.20
11824;DHT22;5969;50.780;7.726;2023-04-03T17:35:27;13.00;55.70
11824;DHT22;5969;50.780;7.726;2023-04-03T17:37:55;12.40;57.60
11824;DHT22;5969;50.780;7.726;2023-04-03T17:40:22;12.20;56.90
11824;DHT22;5969;50.780;7.726;2023-04-03T17:42:50;11.80;58.00
11824;DHT22;5969;50.780;7.726;2023-04-03T17:45:19;11.60;59.80
11824;DHT22;5969;50.780;7.726;2023-04-03T17:47:46;11.30;59.00
11824;DHT22;5969;50.780;7.726;2023-04-03T17:50:14;10.90;60.70
11824;DHT22;5969;50.780;7.726;2023-04-03T17:52:43;10.60;61.70
11824;DHT22;5969;50.780;7.726;2023-04-03T17:55:10;10.30;61.20
11824;DHT22;5969;50.780;7.726;2023-04-03T17:57:37;10.00;61.00
11824;DHT22;5969;50.780;7.726;2023-04-03T18:00:08;9.70;63.50
11824;DHT22;5969;50.780;7.726;2023-04-03T18:02:35;9.20;63.90
11824;DHT22;5969;50.780;7.726;2023-04-03T18:05:02;9.10;65.30
11824;DHT22;5969;50.780;7.726;2023-04-03T18:07:29;8.70;66.30
11824;DHT22;5969;50.780;7.726;2023-04-03T18:09:56;8.70;66.10
11824;DHT22;5969;50.780;7.726;2023-04-03T18:12:25;8.60;66.60
11824;DHT22;5969;50.780;7.726;2023-04-03T18:14:52;8.40;67.50
11824;DHT22;5969;50.780;7.726;2023-04-03T18:17:22;8.30;68.30
11824;DHT22;5969;50.780;7.726;2023-04-03T18:19:51;8.00;67.90
11824;DHT22;5969;50.780;7.726;2023-04-03T18:22:22;8.10;68.60
11824;DHT22;5969;50.780;7.726;2023-04-03T18:24:52;8.00;68.70
11824;DHT22;5969;50.780;7.726;2023-04-03T18:27:21;8.10;67.50
11824;DHT22;5969;50.780;7.726;2023-04-03T18:29:54;8.00;67.80
11824;DHT22;5969;50.780;7.726;2023-04-03T18:32:25;7.70;68.60
11824;DHT22;5969;50.780;7.726;2023-04-03T18:34:52;7.80;69.00
11824;DHT22;5969;50.780;7.726;2023-04-03T18:37:19;7.70;70.30
11824;DHT22;5969;50.780;7.726;2023-04-03T18:39:48;7.60;70.00
11824;DHT22;5969;50.780;7.726;2023-04-03T18:42:18;7.40;70.40
11824;DHT22;5969;50.780;7.726;2023-04-03T18:44:48;7.40;71.10
11824;DHT22;5969;50.780;7.726;2023-04-03T18:47:16;7.20;70.40
11824;DHT22;5969;50.780;7.726;2023-04-03T18:49:44;7.10;71.10
11824;DHT22;5969;50.780;7.726;2023-04-03T18:52:11;7.00;71.20
11824;DHT22;5969;50.780;7.726;2023-04-03T18:54:38;7.00;71.40
11824;DHT22;5969;50.780;7.726;2023-04-03T18:57:08;6.90;71.50
11824;DHT22;5969;50.780;7.726;2023-04-03T18:59:35;6.90;72.00
11824;DHT22;5969;50.780;7.726;2023-04-03T19:02:03;6.70;71.90
11824;DHT22;5969;50.780;7.726;2023-04-03T19:04:32;6.60;72.20
11824;DHT22;5969;50.780;7.726;2023-04-03T19:07:00;6.50;72.60
11824;DHT22;5969;50.780;7.726;2023-04-03T19:09:30;6.50;73.40
11824;DHT22;5969;50.780;7.726;2023-04-03T19:11:58;6.40;73.50
11824;DHT22;5969;50.780;7.726;2023-04-03T19:14:31;6.50;73.70
11824;DHT22;5969;50.780;7.726;2023-04-03T19:17:01;6.40;73.80
11824;DHT22;5969;50.780;7.726;2023-04-03T19:19:29;6.20;74.10
11824;DHT22;5969;50.780;7.726;2023-04-03T19:22:04;6.20;74.80
11824;DHT22;5969;50.780;7.726;2023-04-03T19:24:32;6.20;73.60
11824;DHT22;5969;50.780;7.726;2023-04-03T19:27:04;6.00;74.90
11824;DHT22;5969;50.780;7.726;2023-04-03T19:29:34;6.00;75.50
11824;DHT22;5969;50.780;7.726;2023-04-03T19:32:03;5.90;75.50
11824;DHT22;5969;50.780;7.726;2023-04-03T19:34:30;5.80;75.90
11824;DHT22;5969;50.780;7.726;2023-04-03T19:37:08;5.70;76.00
11824;DHT22;5969;50.780;7.726;2023-04-03T19:39:39;5.70;75.90
11824;DHT22;5969;50.780;7.726;2023-04-03T19:42:06;5.70;76.50
11824;DHT22;5969;50.780;7.726;2023-04-03T19:44:34;5.60;76.10
11824;DHT22;5969;50.780;7.726;2023-04-03T19:47:04;5.50;76.90
11824;DHT22;5969;50.780;7.726;2023-04-03T19:49:31;5.50;76.90
11824;DHT22;5969;50.780;7.726;2023-04-03T19:51:58;5.50;76.90
11824;DHT22;5969;50.780;7.726;2023-04-03T19:54:26;5.50;76.70
11824;DHT22;5969;50.780;7.726;2023-04-03T19:56:53;5.40;77.50
11824;DHT22;5969;50.780;7.726;2023-04-03T19:59:20;5.20;77.40
11824;DHT22;5969;50.780;7.726;2023-04-03T20:01:52;5.10;78.50
11824;DHT22;5969;50.780;7.726;2023-04-03T20:04:19;5.10;78.50
11824;DHT22;5969;50.780;7.726;2023-04-03T20:06:46;5.10;79.30
11824;DHT22;5969;50.780;7.726;2023-04-03T20:09:18;5.00;79.10
11824;DHT22;5969;50.780;7.726;2023-04-03T20:11:47;5.00;79.50
11824;DHT22;5969;50.780;7.726;2023-04-03T20:14:14;4.90;79.30
11824;DHT22;5969;50.780;7.726;2023-04-03T20:16:42;4.80;78.80
11824;DHT22;5969;50.780;7.726;2023-04-03T20:19:10;4.80;79.30
11824;DHT22;5969;50.780;7.726;2023-04-03T20:21:45;4.70;79.00
11824;DHT22;5969;50.780;7.726;2023-04-03T20:24:14;4.60;79.90
11824;DHT22;5969;50.780;7.726;2023-04-03T20:26:42;4.60;79.90
11824;DHT22;5969;50.780;7.726;2023-04-03T20:29:12;4.60;79.40
11824;DHT22;5969;50.780;7.726;2023-04-03T20:31:43;4.40;80.30
11824;DHT22;5969;50.780;7.726;2023-04-03T20:34:11;4.40;81.50
11824;DHT22;5969;50.780;7.726;2023-04-03T20:36:38;4.20;81.40
11824;DHT22;5969;50.780;7.726;2023-04-03T20:39:05;4.20;81.20
11824;DHT22;5969;50.780;7.726;2023-04-03T20:41:32;4.10;80.80
11824;DHT22;5969;50.780;7.726;2023-04-03T20:44:01;4.00;82.60
11824;DHT22;5969;50.780;7.726;2023-04-03T20:46:30;4.00;82.30
11824;DHT22;5969;50.780;7.726;2023-04-03T20:49:05;4.00;82.60
11824;DHT22;5969;50.780;7.726;2023-04-03T20:51:32;3.90;82.60
11824;DHT22;5969;50.780;7.726;2023-04-03T20:53:59;3.90;82.50
11824;DHT22;5969;50.780;7.726;2023-04-03T20:56:28;3.80;82.80
11824;DHT22;5969;50.780;7.726;2023-04-03T20:58:57;3.80;82.50
11824;DHT22;5969;50.780;7.726;2023-04-03T21:01:26;3.70;82.40
11824;DHT22;5969;50.780;7.726;2023-04-03T21:03:58;3.90;82.90
11824;DHT22;5969;50.780;7.726;2023-04-03T21:21:19;3.40;84.70
11824;DHT22;5969;50.780;7.726;2023-04-03T21:23:49;3.30;85.50
11824;DHT22;5969;50.780;7.726;2023-04-03T21:26:17;3.20;83.70
11824;DHT22;5969;50.780;7.726;2023-04-03T21:28:45;3.10;85.00
11824;DHT22;5969;50.780;7.726;2023-04-03T21:31:12;3.00;85.30
11824;DHT22;5969;50.780;7.726;2023-04-03T21:33:41;3.10;85.50
11824;DHT22;5969;50.780;7.726;2023-04-03T21:36:08;3.00;85.70
11824;DHT22;5969;50.780;7.726;2023-04-03T21:38:34;3.00;85.40
11824;DHT22;5969;50.780;7.726;2023-04-03T21:41:02;2.90;85.60
11824;DHT22;5969;50.780;7.726;2023-04-03T21:43:29;2.90;86.50
11824;DHT22;5969;50.780;7.726;2023-04-03T21:46:15;2.90;86.20
11824;DHT22;5969;50.780;7.726;2023-04-03T21:48:43;2.90;85.80
11824;DHT22;5969;50.780;7.726;2023-04-03T21:51:11;2.90;86.40
11824;DHT22;5969;50.780;7.726;2023-04-03T21:53:38;2.80;86.40
11824;DHT22;5969;50.780;7.726;2023-04-03T21:56:06;2.80;86.60
11824;DHT22;5969;50.780;7.726;2023-04-03T21:58:35;2.70;87.20
11824;DHT22;5969;50.780;7.726;2023-04-03T22:01:09;2.50;87.60
11824;DHT22;5969;50.780;7.726;2023-04-03T22:03:36;2.40;87.70
11824;DHT22;5969;50.780;7.726;2023-04-03T22:06:18;2.40;88.00
11824;DHT22;5969;50.780;7.726;2023-04-03T22:08:45;2.50;88.10
11824;DHT22;5969;50.780;7.726;2023-04-03T22:11:14;2.40;88.20
11824;DHT22;5969;50.780;7.726;2023-04-03T22:13:42;2.30;88.60
11824;DHT22;5969;50.780;7.726;2023-04-03T22:16:09;2.20;88.40
11824;DHT22;5969;50.780;7.726;2023-04-03T22:18:37;2.20;89.00
11824;DHT22;5969;50.780;7.726;2023-04-03T22:21:13;2.20;89.50
11824;DHT22;5969;50.780;7.726;2023-04-03T22:23:42;2.20;90.10
11824;DHT22;5969;50.780;7.726;2023-04-03T22:26:10;2.10;90.00
11824;DHT22;5969;50.780;7.726;2023-04-03T22:28:38;2.10;90.20
11824;DHT22;5969;50.780;7.726;2023-04-03T22:31:06;2.00;90.00
11824;DHT22;5969;50.780;7.726;2023-04-03T22:33:34;2.00;90.20
11824;DHT22;5969;50.780;7.726;2023-04-03T22:36:02;2.00;90.30
11824;DHT22;5969;50.780;7.726;2023-04-03T22:38:29;1.90;90.40
11824;DHT22;5969;50.780;7.726;2023-04-03T22:40:58;1.80;90.30
11824;DHT22;5969;50.780;7.726;2023-04-03T22:43:26;1.70;90.50
11824;DHT22;5969;50.780;7.726;2023-04-03T22:45:54;1.70;90.20
11824;DHT22;5969;50.780;7.726;2023-04-03T22:48:21;1.70;90.50
11824;DHT22;5969;50.780;7.726;2023-04-03T22:50:48;1.70;90.70
11824;DHT22;5969;50.780;7.726;2023-04-03T22:53:15;1.60;90.60
11824;DHT22;5969;50.780;7.726;2023-04-03T22:55:53;1.50;90.40
11824;DHT22;5969;50.780;7.726;2023-04-03T22:58:21;1.50;90.50
11824;DHT22;5969;50.780;7.726;2023-04-03T23:00:51;1.50;90.80
11824;DHT22;5969;50.780;7.726;2023-04-03T23:03:18;1.40;91.10
11824;DHT22;5969;50.780;7.726;2023-04-03T23:05:45;1.40;91.20
11824;DHT22;5969;50.780;7.726;2023-04-03T23:08:12;1.40;91.20
11824;DHT22;5969;50.780;7.726;2023-04-03T23:10:40;1.40;91.30
11824;DHT22;5969;50.780;7.726;2023-04-03T23:13:07;1.40;91.50
11824;DHT22;5969;50.780;7.726;2023-04-03T23:15:36;1.30;91.50
11824;DHT22;5969;50.780;7.726;2023-04-03T23:18:03;1.40;91.70
11824;DHT22;5969;50.780;7.726;2023-04-03T23:20:31;1.30;91.50
11824;DHT22;5969;50.780;7.726;2023-04-03T23:22:58;1.00;90.70
11824;DHT22;5969;50.780;7.726;2023-04-03T23:25:25;0.90;91.60
11824;DHT22;5969;50.780;7.726;2023-04-03T23:27:52;0.90;91.80
11824;DHT22;5969;50.780;7.726;2023-04-03T23:30:22;0.90;92.00
11824;DHT22;5969;50.780;7.726;2023-04-03T23:32:51;0.80;92.00
11824;DHT22;5969;50.780;7.726;2023-04-03T23:35:18;0.80;92.40
11824;DHT22;5969;50.780;7.726;2023-04-03T23:37:45;0.80;92.60
11824;DHT22;5969;50.780;7.726;2023-04-03T23:40:12;0.70;92.50
11824;DHT22;5969;50.780;7.726;2023-04-03T23:42:39;0.80;92.90
11824;DHT22;5969;50.780;7.726;2023-04-03T23:45:07;0.70;92.80
11824;DHT22;5969;50.780;7.726;2023-04-03T23:47:34;0.70;92.80
11824;DHT22;5969;50.780;7.726;2023-04-03T23:50:09;0.70;92.70
11824;DHT22;5969;50.780;7.726;2023-04-03T23:52:37;0.70;92.70
11824;DHT22;5969;50.780;7.726;2023-04-03T23:55:04;0.70;92.70
11824;DHT22;5969;50.780;7.726;2023-04-03T23:57:31;0.70;92.60
11824;DHT22;5969;50.780;7.726;2023-04-03T23:59:58;0.60;92.90
